createdAt,value
2022-10-25T00:01:20.979Z,100.00
2022-10-25T00:03:47.660Z,100.00
2022-10-25T00:06:14.670Z,100.00
2022-10-25T00:08:41.389Z,100.00
2022-10-25T00:11:10.574Z,100.00
2022-10-25T00:13:37.057Z,100.00
2022-10-25T00:16:03.573Z,100.00
2022-10-25T00:18:29.935Z,100.00
2022-10-25T00:20:56.291Z,100.00
2022-10-25T00:23:22.666Z,100.00
2022-10-25T00:25:49.017Z,100.00
2022-10-25T00:28:15.346Z,100.00
2022-10-25T00:30:41.718Z,100.00
2022-10-25T00:33:08.104Z,100.00
2022-10-25T00:35:36.344Z,100.00
2022-10-25T00:38:02.753Z,100.00
2022-10-25T00:40:29.182Z,100.00
2022-10-25T00:42:55.522Z,100.00
2022-10-25T00:45:27.627Z,100.00
2022-10-25T00:48:01.894Z,100.00
2022-10-25T00:50:44.275Z,100.00
2022-10-25T00:53:32.866Z,100.00
2022-10-25T00:56:21.436Z,100.00
2022-10-25T00:58:52.026Z,100.00
2022-10-25T01:01:18.670Z,100.00
2022-10-25T01:03:48.963Z,100.00
2022-10-25T01:06:21.825Z,100.00
2022-10-25T01:08:49.947Z,100.00
2022-10-25T01:13:43.815Z,100.00
2022-10-25T01:16:22.700Z,100.00
2022-10-25T01:19:23.523Z,100.00
2022-10-25T01:21:56.924Z,100.00
2022-10-25T01:24:42.604Z,100.00
2022-10-25T01:27:36.696Z,100.00
2022-10-25T01:30:11.265Z,100.00
2022-10-25T01:32:53.838Z,100.00
2022-10-25T01:35:25.899Z,100.00
2022-10-25T01:38:14.177Z,100.00
2022-10-25T01:41:08.353Z,100.00
2022-10-25T01:43:41.222Z,100.00
2022-10-25T01:46:25.762Z,100.00
2022-10-25T01:49:02.787Z,100.00
2022-10-25T01:51:29.204Z,100.00
2022-10-25T01:53:55.759Z,100.00
2022-10-25T01:56:27.369Z,100.00
2022-10-25T01:59:31.171Z,100.00
2022-10-25T02:02:38.422Z,100.00
2022-10-25T02:05:32.496Z,100.00
2022-10-25T02:08:12.560Z,100.00
2022-10-25T02:10:44.329Z,100.00
2022-10-25T02:13:10.740Z,100.00
2022-10-25T02:15:40.954Z,100.00
2022-10-25T02:18:14.575Z,100.00
2022-10-25T02:20:46.634Z,100.00
2022-10-25T02:23:15.756Z,100.00
2022-10-25T02:25:43.179Z,100.00
2022-10-25T02:28:12.920Z,100.00
2022-10-25T02:30:42.423Z,100.00
2022-10-25T02:33:09.027Z,100.00
2022-10-25T02:35:35.372Z,100.00
2022-10-25T02:38:01.913Z,100.00
2022-10-25T02:40:28.711Z,100.00
2022-10-25T02:42:55.054Z,100.00
2022-10-25T02:45:21.487Z,100.00
2022-10-25T02:47:48.141Z,100.00
2022-10-25T02:50:14.943Z,100.00
2022-10-25T02:52:41.351Z,100.00
2022-10-25T02:55:08.133Z,100.00
2022-10-25T02:57:36.016Z,100.00
2022-10-25T03:00:04.831Z,100.00
2022-10-25T03:02:31.181Z,100.00
2022-10-25T03:04:57.506Z,100.00
2022-10-25T03:07:24.174Z,100.00
2022-10-25T03:09:50.586Z,100.00
2022-10-25T03:12:16.909Z,100.00
2022-10-25T03:14:43.667Z,100.00
2022-10-25T03:17:11.133Z,100.00
2022-10-25T03:19:37.458Z,100.00
2022-10-25T03:22:03.825Z,100.00
2022-10-25T03:24:30.137Z,100.00
2022-10-25T03:26:56.467Z,100.00
2022-10-25T03:29:22.826Z,100.00
2022-10-25T03:31:49.228Z,100.00
2022-10-25T03:34:15.584Z,100.00
2022-10-25T03:36:42.020Z,100.00
2022-10-25T03:39:08.491Z,100.00
2022-10-25T03:41:34.947Z,100.00
2022-10-25T03:44:01.401Z,100.00
2022-10-25T03:46:27.763Z,100.00
2022-10-25T03:48:54.157Z,100.00
2022-10-25T03:51:20.510Z,100.00
2022-10-25T03:53:46.879Z,100.00
2022-10-25T03:56:13.214Z,100.00
2022-10-25T03:58:39.597Z,100.00
2022-10-25T04:01:08.925Z,100.00
2022-10-25T04:03:35.894Z,100.00
2022-10-25T04:06:02.397Z,100.00
2022-10-25T04:08:28.730Z,100.00
2022-10-25T04:10:55.060Z,100.00
2022-10-25T04:13:21.421Z,100.00
2022-10-25T04:15:47.780Z,100.00
2022-10-25T04:18:14.129Z,100.00
2022-10-25T04:20:40.494Z,100.00
2022-10-25T04:23:06.847Z,100.00
2022-10-25T04:25:33.221Z,100.00
2022-10-25T04:28:00.329Z,100.00
2022-10-25T04:30:26.787Z,100.00
2022-10-25T04:32:53.131Z,100.00
2022-10-25T04:35:19.533Z,100.00
2022-10-25T04:37:45.903Z,100.00
2022-10-25T04:40:12.811Z,100.00
2022-10-25T04:42:39.202Z,100.00
2022-10-25T04:45:05.983Z,100.00
2022-10-25T04:47:32.641Z,100.00
2022-10-25T04:49:59.322Z,100.00
2022-10-25T04:52:25.859Z,100.00
2022-10-25T04:54:52.179Z,100.00
2022-10-25T04:57:18.594Z,100.00
2022-10-25T04:59:44.928Z,100.00
2022-10-25T05:02:12.328Z,100.00
2022-10-25T05:04:38.697Z,100.00
2022-10-25T05:07:05.103Z,100.00
2022-10-25T05:09:31.465Z,100.00
2022-10-25T05:11:57.852Z,100.00
2022-10-25T05:14:24.262Z,100.00
2022-10-25T05:16:50.633Z,100.00
2022-10-25T05:19:17.064Z,100.00
2022-10-25T05:21:43.451Z,100.00
2022-10-25T05:24:09.925Z,100.00
2022-10-25T05:26:36.315Z,100.00
2022-10-25T05:29:05.523Z,100.00
2022-10-25T05:31:34.295Z,100.00
2022-10-25T05:34:01.299Z,100.00
2022-10-25T05:36:29.358Z,100.00
2022-10-25T05:38:56.236Z,100.00
2022-10-25T05:41:22.802Z,100.00
2022-10-25T05:43:49.161Z,100.00
2022-10-25T05:46:18.786Z,100.00
2022-10-25T05:48:48.720Z,100.00
2022-10-25T05:54:10.626Z,100.00
2022-10-25T05:56:37.508Z,100.00
2022-10-25T05:59:11.529Z,100.00
2022-10-25T06:01:43.803Z,100.00
2022-10-25T06:04:11.170Z,100.00
2022-10-25T06:06:39.389Z,100.00
2022-10-25T06:09:06.902Z,100.00
2022-10-25T06:11:33.769Z,100.00
2022-10-25T06:14:00.429Z,100.00
2022-10-25T06:16:26.864Z,100.00
2022-10-25T06:18:54.478Z,100.00
2022-10-25T06:21:24.584Z,100.00
2022-10-25T06:23:51.320Z,100.00
2022-10-25T06:26:21.734Z,100.00
2022-10-25T06:28:51.032Z,100.00
2022-10-25T06:31:18.963Z,100.00
2022-10-25T06:33:46.235Z,100.00
2022-10-25T06:36:16.656Z,100.00
2022-10-25T06:38:44.264Z,100.00
2022-10-25T06:41:31.330Z,100.00
2022-10-25T06:44:03.839Z,100.00
2022-10-25T06:46:37.966Z,100.00
2022-10-25T06:49:10.313Z,100.00
2022-10-25T06:51:36.723Z,100.00
2022-10-25T06:54:07.935Z,100.00
2022-10-25T06:56:35.021Z,100.00
2022-10-25T06:59:02.178Z,100.00
2022-10-25T07:01:28.831Z,100.00
2022-10-25T07:03:55.326Z,100.00
2022-10-25T07:06:27.849Z,100.00
2022-10-25T07:09:01.080Z,100.00
2022-10-25T07:11:30.223Z,100.00
2022-10-25T07:13:58.546Z,100.00
2022-10-25T07:16:26.306Z,100.00
2022-10-25T07:18:52.992Z,100.00
2022-10-25T07:21:21.840Z,100.00
2022-10-25T07:23:50.029Z,100.00
2022-10-25T07:26:21.933Z,100.00
2022-10-25T07:28:49.861Z,100.00
2022-10-25T07:31:21.960Z,100.00
2022-10-25T07:33:49.395Z,100.00
2022-10-25T07:36:16.045Z,100.00
2022-10-25T07:38:42.518Z,100.00
2022-10-25T07:41:09.523Z,100.00
2022-10-25T07:43:37.500Z,100.00
2022-10-25T07:46:05.086Z,100.00
2022-10-25T07:48:31.489Z,100.00
2022-10-25T07:50:57.965Z,100.00
2022-10-25T07:53:24.309Z,100.00
2022-10-25T07:55:52.078Z,100.00
2022-10-25T07:58:19.070Z,100.00
2022-10-25T08:00:45.549Z,100.00
2022-10-25T08:03:13.230Z,100.00
2022-10-25T08:05:39.901Z,100.00
2022-10-25T08:08:06.440Z,100.00
2022-10-25T08:10:32.798Z,100.00
2022-10-25T08:12:59.251Z,100.00
2022-10-25T08:15:25.699Z,100.00
2022-10-25T08:17:59.262Z,100.00
2022-10-25T08:20:43.421Z,100.00
2022-10-25T08:23:13.283Z,100.00
2022-10-25T08:25:40.163Z,100.00
2022-10-25T08:28:06.518Z,100.00
2022-10-25T08:30:33.127Z,100.00
2022-10-25T08:32:59.505Z,100.00
2022-10-25T08:35:25.938Z,100.00
2022-10-25T08:37:52.297Z,100.00
2022-10-25T08:40:24.655Z,100.00
2022-10-25T08:43:20.787Z,100.00
2022-10-25T08:46:10.521Z,100.00
2022-10-25T08:48:43.597Z,100.00
2022-10-25T08:51:35.805Z,100.00
2022-10-25T08:54:25.155Z,100.00
2022-10-25T08:57:14.601Z,100.00
2022-10-25T08:59:45.396Z,100.00
2022-10-25T09:02:18.252Z,100.00
2022-10-25T09:04:44.936Z,100.00
2022-10-25T09:07:42.780Z,100.00
2022-10-25T09:10:17.531Z,100.00
2022-10-25T09:12:55.907Z,100.00
2022-10-25T09:15:53.422Z,100.00
2022-10-25T09:18:29.966Z,100.00
2022-10-25T09:20:58.516Z,100.00
2022-10-25T09:23:31.119Z,100.00
2022-10-25T09:26:21.032Z,100.00
2022-10-25T09:28:57.973Z,100.00
2022-10-25T09:31:25.537Z,99.95
2022-10-25T09:34:01.636Z,100.00
2022-10-25T09:36:37.856Z,100.00
2022-10-25T09:39:16.144Z,99.84
2022-10-25T09:41:48.347Z,98.32
2022-10-25T09:44:40.813Z,97.15
2022-10-25T09:47:32.544Z,96.05
2022-10-25T09:50:04.285Z,95.09
2022-10-25T09:52:41.921Z,95.70
2022-10-25T09:55:11.518Z,95.93
2022-10-25T09:57:38.224Z,95.77
2022-10-25T10:00:05.853Z,96.93
2022-10-25T10:02:32.395Z,95.95
2022-10-25T10:04:58.870Z,96.52
2022-10-25T10:07:33.989Z,95.64
2022-10-25T10:10:05.459Z,95.40
2022-10-25T10:12:53.318Z,96.11
2022-10-25T10:15:27.575Z,95.59
2022-10-25T10:18:18.912Z,96.39
2022-10-25T10:21:00.650Z,95.78
2022-10-25T10:23:29.991Z,95.91
2022-10-25T10:25:56.765Z,97.03
2022-10-25T10:28:23.211Z,95.36
2022-10-25T10:30:55.010Z,96.27
2022-10-25T10:33:22.794Z,96.00
2022-10-25T10:35:53.647Z,95.32
2022-10-25T10:38:27.173Z,95.34
2022-10-25T10:41:13.429Z,95.17
2022-10-25T10:43:40.433Z,95.70
2022-10-25T10:46:15.016Z,95.42
2022-10-25T10:48:44.318Z,95.68
2022-10-25T10:51:32.051Z,95.73
2022-10-25T10:54:27.359Z,94.89
2022-10-25T10:57:42.698Z,93.85
2022-10-25T11:00:21.970Z,93.28
2022-10-25T11:02:49.316Z,92.68
2022-10-25T11:05:27.578Z,92.66
2022-10-25T11:07:57.150Z,93.05
2022-10-25T11:10:33.255Z,92.21
2022-10-25T11:13:17.486Z,91.65
2022-10-25T11:16:02.449Z,92.76
2022-10-25T11:18:56.347Z,91.15
2022-10-25T11:22:00.393Z,91.23
2022-10-25T11:24:44.275Z,90.74
2022-10-25T11:27:35.778Z,91.59
2022-10-25T11:30:14.166Z,91.64
2022-10-25T11:32:48.894Z,90.91
2022-10-25T11:35:44.906Z,91.37
2022-10-25T11:38:15.849Z,90.02
2022-10-25T11:41:19.821Z,89.23
2022-10-25T11:43:59.618Z,89.88
2022-10-25T11:46:40.853Z,88.15
2022-10-25T11:49:19.349Z,87.93
2022-10-25T11:52:07.119Z,87.62
2022-10-25T11:54:47.553Z,88.28
2022-10-25T11:57:35.731Z,87.94
2022-10-25T12:00:07.060Z,86.50
2022-10-25T12:02:52.454Z,85.89
2022-10-25T12:05:43.571Z,85.24
2022-10-25T12:08:47.753Z,85.84
2022-10-25T12:11:19.258Z,85.51
2022-10-25T12:13:50.618Z,85.02
2022-10-25T12:16:19.936Z,86.21
2022-10-25T12:19:19.357Z,85.56
2022-10-25T12:21:56.691Z,85.27
2022-10-25T12:24:39.722Z,85.68
2022-10-25T12:27:08.999Z,85.08
2022-10-25T12:29:43.983Z,85.91
2022-10-25T12:32:20.072Z,85.02
2022-10-25T12:34:50.911Z,85.31
2022-10-25T12:37:47.469Z,85.47
2022-10-25T12:40:18.855Z,85.77
2022-10-25T12:42:49.995Z,85.20
2022-10-25T12:45:58.282Z,85.06
2022-10-25T12:49:09.732Z,83.66
2022-10-25T12:52:18.019Z,84.05
2022-10-25T12:55:08.462Z,84.59
2022-10-25T12:57:57.794Z,84.71
2022-10-25T13:00:24.592Z,85.85
2022-10-25T13:02:57.009Z,85.14
2022-10-25T13:05:42.051Z,85.32
2022-10-25T13:08:11.240Z,84.55
2022-10-25T13:10:45.552Z,84.41
2022-10-25T13:13:26.845Z,83.79
2022-10-25T13:15:57.478Z,84.40
2022-10-25T13:18:44.475Z,85.39
2022-10-25T13:21:54.790Z,85.24
2022-10-25T13:24:41.428Z,84.05
2022-10-25T13:27:29.494Z,82.56
2022-10-25T13:33:21.491Z,83.34
2022-10-25T13:35:50.766Z,81.91
2022-10-25T13:38:22.955Z,81.03
2022-10-25T13:41:18.544Z,80.82
2022-10-25T13:44:21.412Z,80.83
2022-10-25T13:46:48.163Z,81.11
2022-10-25T13:49:34.595Z,81.79
2022-10-25T13:52:05.969Z,82.25
2022-10-25T13:54:47.780Z,83.33
2022-10-25T13:57:45.229Z,84.07
2022-10-25T14:00:23.944Z,83.66
2022-10-25T14:03:08.598Z,84.49
2022-10-25T14:05:53.254Z,82.65
2022-10-25T14:09:01.132Z,81.39
2022-10-25T14:11:33.290Z,80.86
2022-10-25T14:14:28.532Z,79.12
2022-10-25T14:17:19.545Z,79.90
2022-10-25T14:19:54.755Z,79.68
2022-10-25T14:22:33.280Z,80.07
2022-10-25T14:25:19.217Z,80.59
2022-10-25T14:27:45.646Z,80.20
2022-10-25T14:30:13.493Z,80.80
2022-10-25T14:32:49.804Z,80.67
2022-10-25T14:35:16.906Z,79.71
2022-10-25T14:37:43.265Z,81.43
2022-10-25T14:40:36.161Z,81.81
2022-10-25T14:43:20.349Z,82.15
2022-10-25T14:46:09.809Z,83.71
2022-10-25T14:48:36.656Z,82.81
2022-10-25T14:51:36.589Z,83.04
2022-10-25T14:54:11.896Z,84.11
2022-10-25T14:56:50.361Z,83.88
2022-10-25T14:59:29.299Z,84.25
2022-10-25T15:02:15.961Z,84.42
2022-10-25T15:04:46.769Z,84.98
2022-10-25T15:07:23.581Z,84.12
2022-10-25T15:09:52.876Z,84.76
2022-10-25T15:12:22.759Z,84.40
2022-10-25T15:14:49.174Z,84.00
2022-10-25T15:17:19.530Z,85.59
2022-10-25T15:20:19.159Z,84.96
2022-10-25T15:22:48.284Z,86.15
2022-10-25T15:25:23.913Z,85.97
2022-10-25T15:27:52.245Z,86.59
2022-10-25T15:30:35.623Z,87.76
2022-10-25T15:33:03.422Z,86.94
2022-10-25T15:35:32.476Z,87.83
2022-10-25T15:37:59.083Z,87.86
2022-10-25T15:40:25.460Z,88.96
2022-10-25T15:42:51.794Z,89.47
2022-10-25T15:45:18.138Z,88.80
2022-10-25T15:47:47.182Z,89.30
2022-10-25T15:50:19.615Z,89.49
2022-10-25T15:52:47.040Z,90.51
2022-10-25T15:55:27.457Z,90.64
2022-10-25T15:57:54.913Z,91.28
2022-10-25T16:00:27.879Z,91.09
2022-10-25T16:02:54.881Z,92.28
2022-10-25T16:05:22.328Z,93.96
2022-10-25T16:07:49.583Z,95.04
2022-10-25T16:10:16.458Z,95.95
2022-10-25T16:12:45.736Z,96.76
2022-10-25T16:15:15.224Z,97.98
2022-10-25T16:17:42.283Z,98.54
2022-10-25T16:20:20.288Z,99.34
2022-10-25T16:22:47.804Z,97.92
2022-10-25T16:25:15.270Z,98.81
2022-10-25T16:27:43.084Z,99.51
2022-10-25T16:30:14.982Z,99.23
2022-10-25T16:32:41.733Z,100.00
2022-10-25T16:35:08.914Z,100.00
2022-10-25T16:37:35.559Z,100.00
2022-10-25T16:40:02.364Z,100.00
2022-10-25T16:42:34.079Z,100.00
2022-10-25T16:45:01.812Z,100.00
2022-10-25T16:47:28.678Z,100.00
2022-10-25T16:49:55.102Z,100.00
2022-10-25T16:52:21.832Z,100.00
2022-10-25T16:54:48.274Z,100.00
2022-10-25T16:57:14.929Z,100.00
2022-10-25T16:59:41.261Z,100.00
2022-10-25T17:02:16.492Z,100.00
2022-10-25T17:04:43.001Z,100.00
2022-10-25T17:07:09.441Z,100.00
2022-10-25T17:09:35.788Z,100.00
2022-10-25T17:12:02.165Z,100.00
2022-10-25T17:14:28.496Z,100.00
2022-10-25T17:16:56.661Z,100.00
2022-10-25T17:19:25.823Z,100.00
2022-10-25T17:21:52.664Z,100.00
2022-10-25T17:24:19.141Z,100.00
2022-10-25T17:26:45.521Z,100.00
2022-10-25T17:29:11.887Z,100.00
2022-10-25T17:31:38.388Z,100.00
2022-10-25T17:34:04.779Z,100.00
2022-10-25T17:36:32.268Z,100.00
2022-10-25T17:38:59.659Z,100.00
2022-10-25T17:41:26.149Z,100.00
2022-10-25T17:43:55.971Z,100.00
2022-10-25T17:46:25.737Z,100.00
2022-10-25T17:48:58.455Z,100.00
2022-10-25T17:51:24.872Z,100.00
2022-10-25T17:53:54.088Z,100.00
2022-10-25T17:56:21.923Z,100.00
2022-10-25T17:58:49.460Z,100.00
2022-10-25T18:01:18.416Z,100.00
2022-10-25T18:03:45.382Z,100.00
2022-10-25T18:06:14.035Z,100.00
2022-10-25T18:08:41.376Z,100.00
2022-10-25T18:11:09.207Z,100.00
2022-10-25T18:13:37.600Z,100.00
2022-10-25T18:18:38.050Z,100.00
2022-10-25T18:21:13.547Z,100.00
2022-10-25T18:23:41.086Z,100.00
2022-10-25T18:26:09.043Z,100.00
2022-10-25T18:28:35.925Z,100.00
2022-10-25T18:31:04.459Z,100.00
2022-10-25T18:33:32.247Z,100.00
2022-10-25T18:36:03.539Z,100.00
2022-10-25T18:38:29.972Z,100.00
2022-10-25T18:40:56.750Z,100.00
2022-10-25T18:43:24.244Z,100.00
2022-10-25T18:45:56.385Z,100.00
2022-10-25T18:48:22.795Z,100.00
2022-10-25T18:50:49.121Z,100.00
2022-10-25T18:53:19.521Z,100.00
2022-10-25T18:55:47.541Z,100.00
2022-10-25T18:58:15.017Z,100.00
2022-10-25T19:00:43.139Z,100.00
2022-10-25T19:03:11.655Z,100.00
2022-10-25T19:05:39.936Z,100.00
2022-10-25T19:08:07.851Z,100.00
2022-10-25T19:10:38.335Z,100.00
2022-10-25T19:13:05.624Z,100.00
2022-10-25T19:15:32.406Z,100.00
2022-10-25T19:17:58.991Z,100.00
2022-10-25T19:20:25.764Z,100.00
2022-10-25T19:22:53.419Z,100.00
2022-10-25T19:25:23.070Z,100.00
2022-10-25T19:27:50.703Z,100.00
2022-10-25T19:30:17.415Z,100.00
2022-10-25T19:32:43.756Z,100.00
2022-10-25T19:35:10.118Z,100.00
2022-10-25T19:37:39.133Z,100.00
2022-10-25T19:40:07.106Z,100.00
2022-10-25T19:42:33.504Z,100.00
2022-10-25T19:47:33.392Z,100.00
2022-10-25T19:49:59.826Z,100.00
2022-10-25T19:52:26.316Z,100.00
2022-10-25T19:54:52.718Z,100.00
2022-10-25T19:57:19.109Z,100.00
2022-10-25T19:59:45.526Z,100.00
2022-10-25T20:02:11.961Z,100.00
2022-10-25T20:04:38.425Z,100.00
2022-10-25T20:07:04.909Z,100.00
2022-10-25T20:09:31.269Z,100.00
2022-10-25T20:11:57.702Z,100.00
2022-10-25T20:14:24.102Z,100.00
2022-10-25T20:16:50.536Z,100.00
2022-10-25T20:19:16.888Z,100.00
2022-10-25T20:21:43.297Z,100.00
2022-10-25T20:24:10.079Z,100.00
2022-10-25T20:26:38.825Z,100.00
2022-10-25T20:29:07.683Z,100.00
2022-10-25T20:31:34.863Z,100.00
2022-10-25T20:34:04.137Z,100.00
2022-10-25T20:36:30.931Z,100.00
2022-10-25T20:38:57.351Z,100.00
2022-10-25T20:41:29.048Z,100.00
2022-10-25T20:43:59.737Z,100.00
2022-10-25T20:46:27.628Z,100.00
2022-10-25T20:48:54.988Z,100.00
2022-10-25T20:51:21.313Z,100.00
2022-10-25T20:53:51.279Z,100.00
2022-10-25T20:56:19.474Z,100.00
2022-10-25T20:58:46.214Z,100.00
2022-10-25T21:01:12.776Z,100.00
2022-10-25T21:03:40.232Z,100.00
2022-10-25T21:06:08.460Z,100.00
2022-10-25T21:08:37.283Z,100.00
2022-10-25T21:11:06.311Z,100.00
2022-10-25T21:13:34.698Z,100.00
2022-10-25T21:16:07.541Z,100.00
2022-10-25T21:18:34.231Z,100.00
2022-10-25T21:21:02.794Z,100.00
2022-10-25T21:23:29.305Z,100.00
2022-10-25T21:26:03.469Z,100.00
2022-10-25T21:28:35.682Z,100.00
2022-10-25T21:31:03.751Z,100.00
2022-10-25T21:33:30.145Z,100.00
2022-10-25T21:36:03.306Z,100.00
2022-10-25T21:38:29.683Z,100.00
2022-10-25T21:41:04.095Z,100.00
2022-10-25T21:43:30.476Z,100.00
2022-10-25T21:45:58.840Z,100.00
2022-10-25T21:48:25.414Z,100.00
2022-10-25T21:50:55.314Z,100.00
2022-10-25T21:53:22.317Z,100.00
2022-10-25T21:55:48.767Z,100.00
2022-10-25T21:58:15.131Z,100.00
2022-10-25T22:00:42.401Z,100.00
2022-10-25T22:03:08.887Z,100.00
2022-10-25T22:05:41.736Z,100.00
2022-10-25T22:08:08.061Z,100.00
2022-10-25T22:10:34.414Z,100.00
2022-10-25T22:13:00.813Z,100.00
2022-10-25T22:15:27.601Z,100.00
2022-10-25T22:17:53.968Z,100.00
2022-10-25T22:20:20.428Z,100.00
2022-10-25T22:22:47.095Z,100.00
2022-10-25T22:25:13.760Z,100.00
2022-10-25T22:27:40.133Z,100.00
2022-10-25T22:30:07.139Z,100.00
2022-10-25T22:32:37.473Z,100.00
2022-10-25T22:35:04.042Z,100.00
2022-10-25T22:37:30.751Z,100.00
2022-10-25T22:39:57.105Z,100.00
2022-10-25T22:42:25.259Z,100.00
2022-10-25T22:44:51.613Z,100.00
2022-10-25T22:47:17.949Z,100.00
2022-10-25T22:49:44.284Z,100.00
2022-10-25T22:52:11.354Z,100.00
2022-10-25T22:54:37.689Z,100.00
2022-10-25T22:57:04.107Z,100.00
2022-10-25T22:59:30.463Z,100.00
2022-10-25T23:01:56.855Z,100.00
2022-10-25T23:04:23.356Z,100.00
2022-10-25T23:06:49.742Z,100.00
2022-10-25T23:09:16.137Z,100.00
2022-10-25T23:11:42.532Z,100.00
2022-10-25T23:14:13.429Z,100.00
2022-10-25T23:16:43.037Z,100.00
2022-10-25T23:19:09.354Z,100.00
2022-10-25T23:21:35.702Z,100.00
2022-10-25T23:24:02.088Z,100.00
2022-10-25T23:26:31.725Z,100.00
2022-10-25T23:28:58.700Z,100.00
2022-10-25T23:31:26.322Z,100.00
2022-10-25T23:33:55.044Z,100.00
2022-10-25T23:36:24.652Z,100.00
2022-10-25T23:38:52.195Z,100.00
2022-10-25T23:41:20.048Z,100.00
2022-10-25T23:43:46.419Z,100.00
2022-10-25T23:46:12.976Z,100.00
2022-10-25T23:48:39.540Z,100.00
2022-10-25T23:51:08.908Z,100.00
2022-10-25T23:53:35.975Z,100.00
2022-10-25T23:56:04.461Z,100.00
2022-10-25T23:58:30.863Z,100.00
